sensor_id;sensor_type;location;lat;lon;timestamp;P1;durP1;ratioP1;P2;durP2;ratioP2
60239;SDS011;46102;39.012;-7.064;2023-06-19T00:01:20;5.05;;;4.38;;
60239;SDS011;46102;39.012;-7.064;2023-06-19T00:03:21;6.28;;;4.70;;
60239;SDS011;46102;39.012;-7.064;2023-06-19T00:05:22;7.38;;;4.93;;
60239;SDS011;46102;39.012;-7.064;2023-06-19T00:07:26;5.20;;;4.72;;
60239;SDS011;46102;39.012;-7.064;2023-06-19T00:09:26;7.07;;;4.95;;
60239;SDS011;46102;39.012;-7.064;2023-06-19T00:11:27;5.90;;;4.75;;
60239;SDS011;46102;39.012;-7.064;2023-06-19T00:13:28;7.32;;;5.13;;
60239;SDS011;46102;39.012;-7.064;2023-06-19T00:15:29;12.95;;;5.03;;
60239;SDS011;46102;39.012;-7.064;2023-06-19T00:17:30;5.47;;;4.78;;
60239;SDS011;46102;39.012;-7.064;2023-06-19T00:19:34;5.25;;;4.75;;
60239;SDS011;46102;39.012;-7.064;2023-06-19T00:21:36;4.35;;;3.95;;
60239;SDS011;46102;39.012;-7.064;2023-06-19T00:23:37;6.28;;;5.10;;
60239;SDS011;46102;39.012;-7.064;2023-06-19T00:25:39;5.55;;;4.88;;
60239;SDS011;46102;39.012;-7.064;2023-06-19T00:27:40;8.18;;;5.50;;
60239;SDS011;46102;39.012;-7.064;2023-06-19T00:29:41;7.78;;;5.13;;
60239;SDS011;46102;39.012;-7.064;2023-06-19T00:31:42;6.82;;;4.60;;
60239;SDS011;46102;39.012;-7.064;2023-06-19T00:33:43;6.32;;;4.95;;
60239;SDS011;46102;39.012;-7.064;2023-06-19T00:35:45;7.50;;;5.18;;
60239;SDS011;46102;39.012;-7.064;2023-06-19T00:37:46;6.63;;;5.43;;
60239;SDS011;46102;39.012;-7.064;2023-06-19T00:39:47;5.35;;;4.85;;
60239;SDS011;46102;39.012;-7.064;2023-06-19T00:41:48;6.45;;;5.03;;
60239;SDS011;46102;39.012;-7.064;2023-06-19T00:43:51;7.60;;;4.70;;
60239;SDS011;46102;39.012;-7.064;2023-06-19T00:45:55;5.60;;;4.38;;
60239;SDS011;46102;39.012;-7.064;2023-06-19T00:48:00;6.60;;;5.40;;
60239;SDS011;46102;39.012;-7.064;2023-06-19T00:50:01;5.13;;;4.43;;
60239;SDS011;46102;39.012;-7.064;2023-06-19T00:52:02;5.60;;;4.72;;
60239;SDS011;46102;39.012;-7.064;2023-06-19T00:54:03;5.55;;;5.00;;
60239;SDS011;46102;39.012;-7.064;2023-06-19T00:56:04;4.65;;;4.22;;
60239;SDS011;46102;39.012;-7.064;2023-06-19T00:58:05;6.50;;;4.93;;
60239;SDS011;46102;39.012;-7.064;2023-06-19T01:00:07;7.88;;;5.30;;
60239;SDS011;46102;39.012;-7.064;2023-06-19T01:02:08;6.80;;;4.80;;
60239;SDS011;46102;39.012;-7.064;2023-06-19T01:04:09;7.07;;;4.63;;
60239;SDS011;46102;39.012;-7.064;2023-06-19T01:06:13;8.95;;;5.00;;
60239;SDS011;46102;39.012;-7.064;2023-06-19T01:10:32;6.63;;;5.22;;
60239;SDS011;46102;39.012;-7.064;2023-06-19T01:12:38;6.95;;;4.75;;
60239;SDS011;46102;39.012;-7.064;2023-06-19T01:14:57;11.90;;;4.75;;
60239;SDS011;46102;39.012;-7.064;2023-06-19T01:16:59;8.55;;;5.10;;
60239;SDS011;46102;39.012;-7.064;2023-06-19T01:19:00;5.82;;;4.78;;
60239;SDS011;46102;39.012;-7.064;2023-06-19T01:21:11;8.27;;;4.93;;
60239;SDS011;46102;39.012;-7.064;2023-06-19T01:23:16;6.45;;;5.57;;
60239;SDS011;46102;39.012;-7.064;2023-06-19T01:25:17;6.60;;;5.32;;
60239;SDS011;46102;39.012;-7.064;2023-06-19T01:27:17;7.35;;;5.07;;
60239;SDS011;46102;39.012;-7.064;2023-06-19T01:29:18;7.70;;;6.00;;
60239;SDS011;46102;39.012;-7.064;2023-06-19T01:31:36;6.93;;;5.05;;
60239;SDS011;46102;39.012;-7.064;2023-06-19T01:33:46;6.70;;;5.28;;
60239;SDS011;46102;39.012;-7.064;2023-06-19T01:35:50;6.88;;;5.32;;
60239;SDS011;46102;39.012;-7.064;2023-06-19T01:37:53;6.03;;;5.38;;
60239;SDS011;46102;39.012;-7.064;2023-06-19T01:39:56;6.68;;;5.65;;
60239;SDS011;46102;39.012;-7.064;2023-06-19T01:41:58;6.90;;;4.78;;
60239;SDS011;46102;39.012;-7.064;2023-06-19T01:44:00;5.72;;;5.18;;
60239;SDS011;46102;39.012;-7.064;2023-06-19T01:46:01;4.80;;;4.45;;
60239;SDS011;46102;39.012;-7.064;2023-06-19T01:48:02;9.35;;;5.22;;
60239;SDS011;46102;39.012;-7.064;2023-06-19T01:50:07;5.47;;;4.70;;
60239;SDS011;46102;39.012;-7.064;2023-06-19T01:52:09;5.35;;;4.80;;
60239;SDS011;46102;39.012;-7.064;2023-06-19T01:54:10;6.07;;;5.47;;
60239;SDS011;46102;39.012;-7.064;2023-06-19T01:56:11;5.35;;;4.45;;
60239;SDS011;46102;39.012;-7.064;2023-06-19T01:58:12;5.28;;;4.47;;
60239;SDS011;46102;39.012;-7.064;2023-06-19T02:00:13;5.90;;;4.72;;
60239;SDS011;46102;39.012;-7.064;2023-06-19T02:04:17;8.45;;;5.18;;
60239;SDS011;46102;39.012;-7.064;2023-06-19T02:06:18;6.60;;;4.95;;
60239;SDS011;46102;39.012;-7.064;2023-06-19T02:08:21;5.35;;;4.82;;
60239;SDS011;46102;39.012;-7.064;2023-06-19T02:10:21;10.23;;;5.90;;
60239;SDS011;46102;39.012;-7.064;2023-06-19T02:12:22;7.43;;;5.68;;
60239;SDS011;46102;39.012;-7.064;2023-06-19T02:14:24;7.40;;;5.38;;
60239;SDS011;46102;39.012;-7.064;2023-06-19T02:16:25;6.88;;;5.13;;
60239;SDS011;46102;39.012;-7.064;2023-06-19T02:18:25;7.10;;;5.55;;
60239;SDS011;46102;39.012;-7.064;2023-06-19T02:20:26;8.50;;;5.03;;
60239;SDS011;46102;39.012;-7.064;2023-06-19T02:22:30;5.13;;;4.60;;
60239;SDS011;46102;39.012;-7.064;2023-06-19T02:24:31;6.55;;;4.82;;
60239;SDS011;46102;39.012;-7.064;2023-06-19T02:26:32;4.72;;;4.30;;
60239;SDS011;46102;39.012;-7.064;2023-06-19T02:28:33;6.05;;;4.75;;
60239;SDS011;46102;39.012;-7.064;2023-06-19T02:30:34;4.97;;;4.47;;
60239;SDS011;46102;39.012;-7.064;2023-06-19T02:32:36;6.30;;;4.47;;
60239;SDS011;46102;39.012;-7.064;2023-06-19T02:34:36;5.65;;;4.72;;
60239;SDS011;46102;39.012;-7.064;2023-06-19T02:36:39;5.88;;;4.25;;
60239;SDS011;46102;39.012;-7.064;2023-06-19T02:38:40;4.97;;;4.10;;
60239;SDS011;46102;39.012;-7.064;2023-06-19T02:40:42;4.75;;;4.00;;
60239;SDS011;46102;39.012;-7.064;2023-06-19T02:42:44;5.45;;;4.00;;
60239;SDS011;46102;39.012;-7.064;2023-06-19T02:44:45;6.05;;;4.50;;
60239;SDS011;46102;39.012;-7.064;2023-06-19T02:46:46;5.28;;;4.32;;
60239;SDS011;46102;39.012;-7.064;2023-06-19T02:48:46;7.13;;;4.57;;
60239;SDS011;46102;39.012;-7.064;2023-06-19T02:50:47;4.95;;;3.97;;
60239;SDS011;46102;39.012;-7.064;2023-06-19T02:52:48;5.03;;;4.50;;
60239;SDS011;46102;39.012;-7.064;2023-06-19T02:54:49;5.00;;;3.90;;
60239;SDS011;46102;39.012;-7.064;2023-06-19T02:56:50;4.80;;;3.90;;
60239;SDS011;46102;39.012;-7.064;2023-06-19T02:58:51;7.30;;;4.53;;
60239;SDS011;46102;39.012;-7.064;2023-06-19T03:00:52;4.38;;;3.85;;
60239;SDS011;46102;39.012;-7.064;2023-06-19T03:02:53;4.55;;;4.15;;
60239;SDS011;46102;39.012;-7.064;2023-06-19T03:04:54;5.55;;;4.53;;
60239;SDS011;46102;39.012;-7.064;2023-06-19T03:06:55;6.43;;;4.43;;
60239;SDS011;46102;39.012;-7.064;2023-06-19T03:08:55;5.95;;;3.90;;
60239;SDS011;46102;39.012;-7.064;2023-06-19T03:10:56;5.68;;;4.22;;
60239;SDS011;46102;39.012;-7.064;2023-06-19T03:12:58;4.43;;;4.03;;
60239;SDS011;46102;39.012;-7.064;2023-06-19T03:14:59;4.63;;;4.18;;
60239;SDS011;46102;39.012;-7.064;2023-06-19T03:17:02;5.65;;;4.00;;
60239;SDS011;46102;39.012;-7.064;2023-06-19T03:19:04;6.20;;;4.47;;
60239;SDS011;46102;39.012;-7.064;2023-06-19T03:21:06;5.32;;;4.32;;
60239;SDS011;46102;39.012;-7.064;2023-06-19T03:23:07;7.35;;;4.53;;
60239;SDS011;46102;39.012;-7.064;2023-06-19T03:25:08;5.50;;;4.68;;
60239;SDS011;46102;39.012;-7.064;2023-06-19T03:27:09;5.38;;;3.38;;
60239;SDS011;46102;39.012;-7.064;2023-06-19T03:29:10;6.18;;;4.50;;
60239;SDS011;46102;39.012;-7.064;2023-06-19T03:31:25;4.90;;;4.40;;
60239;SDS011;46102;39.012;-7.064;2023-06-19T03:33:27;6.72;;;3.97;;
60239;SDS011;46102;39.012;-7.064;2023-06-19T03:35:28;4.47;;;3.92;;
60239;SDS011;46102;39.012;-7.064;2023-06-19T03:37:29;5.45;;;3.70;;
60239;SDS011;46102;39.012;-7.064;2023-06-19T03:39:34;6.85;;;4.28;;
60239;SDS011;46102;39.012;-7.064;2023-06-19T03:41:41;5.13;;;4.70;;
60239;SDS011;46102;39.012;-7.064;2023-06-19T03:43:42;3.97;;;3.67;;
60239;SDS011;46102;39.012;-7.064;2023-06-19T03:45:43;5.60;;;4.55;;
60239;SDS011;46102;39.012;-7.064;2023-06-19T03:47:44;5.50;;;4.15;;
60239;SDS011;46102;39.012;-7.064;2023-06-19T03:49:45;5.82;;;4.20;;
60239;SDS011;46102;39.012;-7.064;2023-06-19T03:51:45;6.28;;;4.43;;
60239;SDS011;46102;39.012;-7.064;2023-06-19T03:53:46;9.00;;;4.90;;
60239;SDS011;46102;39.012;-7.064;2023-06-19T03:55:47;5.65;;;5.10;;
60239;SDS011;46102;39.012;-7.064;2023-06-19T03:57:48;7.10;;;6.20;;
60239;SDS011;46102;39.012;-7.064;2023-06-19T03:59:49;6.15;;;5.35;;
60239;SDS011;46102;39.012;-7.064;2023-06-19T04:01:50;8.25;;;6.50;;
60239;SDS011;46102;39.012;-7.064;2023-06-19T04:03:51;9.07;;;7.57;;
60239;SDS011;46102;39.012;-7.064;2023-06-19T04:05:52;13.50;;;9.27;;
60239;SDS011;46102;39.012;-7.064;2023-06-19T04:07:53;16.15;;;10.68;;
60239;SDS011;46102;39.012;-7.064;2023-06-19T04:09:54;13.20;;;9.73;;
60239;SDS011;46102;39.012;-7.064;2023-06-19T04:11:55;16.17;;;11.95;;
60239;SDS011;46102;39.012;-7.064;2023-06-19T04:13:57;16.70;;;12.07;;
60239;SDS011;46102;39.012;-7.064;2023-06-19T04:15:58;14.52;;;10.75;;
60239;SDS011;46102;39.012;-7.064;2023-06-19T04:18:01;15.00;;;11.20;;
60239;SDS011;46102;39.012;-7.064;2023-06-19T04:20:02;13.43;;;11.25;;
60239;SDS011;46102;39.012;-7.064;2023-06-19T04:22:11;16.27;;;10.80;;
60239;SDS011;46102;39.012;-7.064;2023-06-19T04:24:12;15.23;;;10.60;;
60239;SDS011;46102;39.012;-7.064;2023-06-19T04:26:13;14.55;;;10.13;;
60239;SDS011;46102;39.012;-7.064;2023-06-19T04:28:13;13.57;;;10.55;;
60239;SDS011;46102;39.012;-7.064;2023-06-19T04:30:14;14.27;;;9.30;;
60239;SDS011;46102;39.012;-7.064;2023-06-19T04:32:15;10.30;;;8.48;;
60239;SDS011;46102;39.012;-7.064;2023-06-19T04:34:16;10.88;;;8.52;;
60239;SDS011;46102;39.012;-7.064;2023-06-19T04:36:21;9.50;;;7.72;;
60239;SDS011;46102;39.012;-7.064;2023-06-19T04:38:22;9.45;;;7.72;;
60239;SDS011;46102;39.012;-7.064;2023-06-19T04:40:25;6.78;;;5.95;;
60239;SDS011;46102;39.012;-7.064;2023-06-19T04:42:26;6.57;;;5.88;;
60239;SDS011;46102;39.012;-7.064;2023-06-19T04:44:27;5.70;;;5.10;;
60239;SDS011;46102;39.012;-7.064;2023-06-19T04:46:30;5.70;;;4.40;;
60239;SDS011;46102;39.012;-7.064;2023-06-19T04:48:31;8.82;;;5.25;;
60239;SDS011;46102;39.012;-7.064;2023-06-19T04:50:31;7.35;;;5.80;;
60239;SDS011;46102;39.012;-7.064;2023-06-19T04:52:32;7.85;;;6.45;;
60239;SDS011;46102;39.012;-7.064;2023-06-19T04:54:33;7.25;;;6.05;;
60239;SDS011;46102;39.012;-7.064;2023-06-19T04:56:34;8.05;;;6.20;;
60239;SDS011;46102;39.012;-7.064;2023-06-19T04:58:34;7.72;;;6.63;;
60239;SDS011;46102;39.012;-7.064;2023-06-19T05:00:35;8.95;;;6.97;;
60239;SDS011;46102;39.012;-7.064;2023-06-19T05:02:36;10.95;;;6.85;;
60239;SDS011;46102;39.012;-7.064;2023-06-19T05:04:37;10.73;;;7.43;;
60239;SDS011;46102;39.012;-7.064;2023-06-19T05:06:38;8.45;;;6.72;;
60239;SDS011;46102;39.012;-7.064;2023-06-19T05:08:39;9.93;;;7.25;;
60239;SDS011;46102;39.012;-7.064;2023-06-19T05:10:39;8.00;;;6.07;;
60239;SDS011;46102;39.012;-7.064;2023-06-19T05:12:40;9.80;;;6.35;;
60239;SDS011;46102;39.012;-7.064;2023-06-19T05:14:41;8.20;;;6.20;;
60239;SDS011;46102;39.012;-7.064;2023-06-19T05:16:42;8.60;;;6.28;;
60239;SDS011;46102;39.012;-7.064;2023-06-19T05:18:42;11.35;;;5.90;;
60239;SDS011;46102;39.012;-7.064;2023-06-19T05:20:44;5.97;;;5.40;;
60239;SDS011;46102;39.012;-7.064;2023-06-19T05:22:45;8.50;;;5.78;;
60239;SDS011;46102;39.012;-7.064;2023-06-19T05:24:45;6.45;;;5.72;;
60239;SDS011;46102;39.012;-7.064;2023-06-19T05:26:46;8.25;;;6.07;;
60239;SDS011;46102;39.012;-7.064;2023-06-19T05:28:47;7.85;;;5.75;;
60239;SDS011;46102;39.012;-7.064;2023-06-19T05:30:48;8.80;;;6.13;;
60239;SDS011;46102;39.012;-7.064;2023-06-19T05:32:50;7.30;;;5.90;;
60239;SDS011;46102;39.012;-7.064;2023-06-19T05:34:51;6.18;;;5.57;;
60239;SDS011;46102;39.012;-7.064;2023-06-19T05:36:51;9.95;;;5.65;;
60239;SDS011;46102;39.012;-7.064;2023-06-19T05:38:52;7.18;;;5.53;;
60239;SDS011;46102;39.012;-7.064;2023-06-19T05:40:53;6.57;;;5.10;;
60239;SDS011;46102;39.012;-7.064;2023-06-19T05:42:54;6.15;;;4.75;;
60239;SDS011;46102;39.012;-7.064;2023-06-19T05:44:55;4.95;;;4.45;;
60239;SDS011;46102;39.012;-7.064;2023-06-19T05:46:56;5.38;;;4.55;;
60239;SDS011;46102;39.012;-7.064;2023-06-19T05:48:57;5.80;;;4.22;;
60239;SDS011;46102;39.012;-7.064;2023-06-19T05:50:58;4.38;;;3.92;;
60239;SDS011;46102;39.012;-7.064;2023-06-19T05:52:59;6.05;;;4.75;;
60239;SDS011;46102;39.012;-7.064;2023-06-19T05:54:59;5.05;;;4.32;;
60239;SDS011;46102;39.012;-7.064;2023-06-19T05:57:00;5.90;;;4.53;;
60239;SDS011;46102;39.012;-7.064;2023-06-19T05:59:01;5.80;;;5.20;;
60239;SDS011;46102;39.012;-7.064;2023-06-19T06:01:03;9.13;;;4.95;;
60239;SDS011;46102;39.012;-7.064;2023-06-19T06:03:03;8.18;;;4.90;;
60239;SDS011;46102;39.012;-7.064;2023-06-19T06:05:04;10.77;;;5.40;;
60239;SDS011;46102;39.012;-7.064;2023-06-19T06:07:05;6.72;;;4.50;;
60239;SDS011;46102;39.012;-7.064;2023-06-19T06:09:06;8.52;;;4.65;;
60239;SDS011;46102;39.012;-7.064;2023-06-19T06:11:11;6.70;;;5.15;;
60239;SDS011;46102;39.012;-7.064;2023-06-19T06:13:11;6.32;;;5.07;;
60239;SDS011;46102;39.012;-7.064;2023-06-19T06:15:12;7.68;;;5.03;;
60239;SDS011;46102;39.012;-7.064;2023-06-19T06:17:13;8.95;;;5.40;;
60239;SDS011;46102;39.012;-7.064;2023-06-19T06:19:14;8.45;;;5.35;;
60239;SDS011;46102;39.012;-7.064;2023-06-19T06:21:14;7.03;;;4.97;;
60239;SDS011;46102;39.012;-7.064;2023-06-19T06:23:15;5.07;;;4.68;;
60239;SDS011;46102;39.012;-7.064;2023-06-19T06:25:16;5.50;;;5.00;;
60239;SDS011;46102;39.012;-7.064;2023-06-19T06:27:17;6.93;;;5.43;;
60239;SDS011;46102;39.012;-7.064;2023-06-19T06:29:17;5.93;;;4.88;;
60239;SDS011;46102;39.012;-7.064;2023-06-19T06:31:19;7.97;;;6.22;;
60239;SDS011;46102;39.012;-7.064;2023-06-19T06:33:20;8.05;;;5.55;;
60239;SDS011;46102;39.012;-7.064;2023-06-19T06:35:20;8.68;;;5.60;;
60239;SDS011;46102;39.012;-7.064;2023-06-19T06:37:21;6.50;;;5.13;;
60239;SDS011;46102;39.012;-7.064;2023-06-19T06:39:25;7.07;;;5.43;;
60239;SDS011;46102;39.012;-7.064;2023-06-19T06:41:26;5.75;;;5.13;;
60239;SDS011;46102;39.012;-7.064;2023-06-19T06:43:26;6.13;;;5.47;;
60239;SDS011;46102;39.012;-7.064;2023-06-19T06:45:28;7.53;;;5.60;;
60239;SDS011;46102;39.012;-7.064;2023-06-19T06:47:28;7.63;;;5.35;;
60239;SDS011;46102;39.012;-7.064;2023-06-19T06:49:29;6.55;;;5.68;;
60239;SDS011;46102;39.012;-7.064;2023-06-19T06:51:30;5.93;;;5.40;;
60239;SDS011;46102;39.012;-7.064;2023-06-19T06:53:31;10.68;;;5.85;;
60239;SDS011;46102;39.012;-7.064;2023-06-19T06:55:35;4.97;;;4.55;;
60239;SDS011;46102;39.012;-7.064;2023-06-19T06:57:36;6.28;;;5.10;;
60239;SDS011;46102;39.012;-7.064;2023-06-19T06:59:36;5.22;;;4.68;;
60239;SDS011;46102;39.012;-7.064;2023-06-19T07:01:37;8.95;;;4.88;;
60239;SDS011;46102;39.012;-7.064;2023-06-19T07:03:38;6.40;;;4.68;;
60239;SDS011;46102;39.012;-7.064;2023-06-19T07:05:39;4.88;;;4.47;;
60239;SDS011;46102;39.012;-7.064;2023-06-19T07:07:40;5.10;;;4.63;;
60239;SDS011;46102;39.012;-7.064;2023-06-19T07:09:41;7.82;;;5.05;;
60239;SDS011;46102;39.012;-7.064;2023-06-19T07:11:41;6.78;;;4.97;;
60239;SDS011;46102;39.012;-7.064;2023-06-19T07:13:42;5.32;;;4.82;;
60239;SDS011;46102;39.012;-7.064;2023-06-19T07:15:43;10.60;;;5.13;;
60239;SDS011;46102;39.012;-7.064;2023-06-19T07:17:44;6.00;;;4.07;;
60239;SDS011;46102;39.012;-7.064;2023-06-19T07:19:45;6.28;;;4.60;;
60239;SDS011;46102;39.012;-7.064;2023-06-19T07:21:46;6.20;;;4.60;;
60239;SDS011;46102;39.012;-7.064;2023-06-19T07:23:47;5.25;;;4.28;;
60239;SDS011;46102;39.012;-7.064;2023-06-19T07:25:48;5.05;;;4.55;;
60239;SDS011;46102;39.012;-7.064;2023-06-19T07:27:49;5.80;;;4.95;;
60239;SDS011;46102;39.012;-7.064;2023-06-19T07:29:50;4.40;;;3.90;;
60239;SDS011;46102;39.012;-7.064;2023-06-19T07:31:50;4.70;;;4.20;;
60239;SDS011;46102;39.012;-7.064;2023-06-19T07:33:51;7.07;;;5.15;;
60239;SDS011;46102;39.012;-7.064;2023-06-19T07:35:52;6.28;;;4.68;;
60239;SDS011;46102;39.012;-7.064;2023-06-19T07:37:53;7.63;;;3.78;;
60239;SDS011;46102;39.012;-7.064;2023-06-19T07:39:53;6.28;;;3.95;;
60239;SDS011;46102;39.012;-7.064;2023-06-19T07:41:54;5.20;;;4.10;;
60239;SDS011;46102;39.012;-7.064;2023-06-19T07:43:55;4.68;;;4.15;;
60239;SDS011;46102;39.012;-7.064;2023-06-19T07:45:56;4.93;;;4.43;;
60239;SDS011;46102;39.012;-7.064;2023-06-19T07:47:56;6.10;;;4.85;;
60239;SDS011;46102;39.012;-7.064;2023-06-19T07:49:58;6.75;;;4.55;;
60239;SDS011;46102;39.012;-7.064;2023-06-19T07:51:58;7.63;;;4.63;;
60239;SDS011;46102;39.012;-7.064;2023-06-19T07:53:59;5.78;;;5.28;;
60239;SDS011;46102;39.012;-7.064;2023-06-19T07:56:00;6.22;;;5.57;;
60239;SDS011;46102;39.012;-7.064;2023-06-19T07:58:01;7.22;;;5.97;;
60239;SDS011;46102;39.012;-7.064;2023-06-19T08:00:02;8.70;;;5.82;;
60239;SDS011;46102;39.012;-7.064;2023-06-19T08:02:11;6.15;;;5.45;;
60239;SDS011;46102;39.012;-7.064;2023-06-19T08:04:12;5.40;;;5.00;;
60239;SDS011;46102;39.012;-7.064;2023-06-19T08:06:13;5.47;;;4.22;;
60239;SDS011;46102;39.012;-7.064;2023-06-19T08:08:14;4.53;;;4.10;;
60239;SDS011;46102;39.012;-7.064;2023-06-19T08:10:14;4.10;;;3.80;;
60239;SDS011;46102;39.012;-7.064;2023-06-19T08:12:15;3.78;;;3.47;;
60239;SDS011;46102;39.012;-7.064;2023-06-19T08:14:16;5.68;;;3.90;;
60239;SDS011;46102;39.012;-7.064;2023-06-19T08:16:17;4.32;;;3.92;;
60239;SDS011;46102;39.012;-7.064;2023-06-19T08:18:18;5.55;;;3.45;;
60239;SDS011;46102;39.012;-7.064;2023-06-19T08:20:20;3.53;;;3.10;;
60239;SDS011;46102;39.012;-7.064;2023-06-19T08:22:21;2.90;;;2.70;;
60239;SDS011;46102;39.012;-7.064;2023-06-19T08:24:22;3.10;;;2.90;;
60239;SDS011;46102;39.012;-7.064;2023-06-19T08:26:23;3.15;;;2.95;;
60239;SDS011;46102;39.012;-7.064;2023-06-19T08:28:23;3.13;;;2.83;;
60239;SDS011;46102;39.012;-7.064;2023-06-19T08:30:24;2.72;;;2.53;;
60239;SDS011;46102;39.012;-7.064;2023-06-19T08:32:26;2.90;;;2.70;;
60239;SDS011;46102;39.012;-7.064;2023-06-19T08:34:27;3.10;;;2.85;;
60239;SDS011;46102;39.012;-7.064;2023-06-19T08:36:28;4.10;;;3.20;;
60239;SDS011;46102;39.012;-7.064;2023-06-19T08:38:29;3.65;;;3.08;;
60239;SDS011;46102;39.012;-7.064;2023-06-19T08:40:30;3.28;;;2.75;;
60239;SDS011;46102;39.012;-7.064;2023-06-19T08:42:31;4.97;;;2.40;;
60239;SDS011;46102;39.012;-7.064;2023-06-19T08:44:32;5.35;;;3.38;;
60239;SDS011;46102;39.012;-7.064;2023-06-19T08:46:34;4.53;;;2.88;;
60239;SDS011;46102;39.012;-7.064;2023-06-19T08:48:37;3.55;;;3.13;;
60239;SDS011;46102;39.012;-7.064;2023-06-19T08:50:39;3.25;;;3.03;;
60239;SDS011;46102;39.012;-7.064;2023-06-19T08:52:39;6.63;;;3.28;;
60239;SDS011;46102;39.012;-7.064;2023-06-19T08:54:41;3.33;;;2.88;;
60239;SDS011;46102;39.012;-7.064;2023-06-19T08:58:47;6.35;;;3.08;;
60239;SDS011;46102;39.012;-7.064;2023-06-19T09:00:48;3.72;;;3.00;;
60239;SDS011;46102;39.012;-7.064;2023-06-19T09:02:49;3.53;;;3.33;;
60239;SDS011;46102;39.012;-7.064;2023-06-19T09:04:50;2.90;;;2.63;;
60239;SDS011;46102;39.012;-7.064;2023-06-19T09:06:55;3.40;;;3.10;;
60239;SDS011;46102;39.012;-7.064;2023-06-19T09:08:58;2.97;;;2.78;;
60239;SDS011;46102;39.012;-7.064;2023-06-19T09:11:03;3.67;;;2.80;;
60239;SDS011;46102;39.012;-7.064;2023-06-19T09:13:05;3.13;;;2.92;;
60239;SDS011;46102;39.012;-7.064;2023-06-19T09:15:12;4.55;;;3.75;;
60239;SDS011;46102;39.012;-7.064;2023-06-19T09:17:20;3.35;;;3.05;;
60239;SDS011;46102;39.012;-7.064;2023-06-19T09:19:23;3.30;;;3.10;;
60239;SDS011;46102;39.012;-7.064;2023-06-19T09:21:24;3.88;;;3.13;;
60239;SDS011;46102;39.012;-7.064;2023-06-19T09:23:25;4.60;;;3.33;;
60239;SDS011;46102;39.012;-7.064;2023-06-19T09:25:30;4.90;;;3.17;;
60239;SDS011;46102;39.012;-7.064;2023-06-19T09:27:33;4.10;;;2.92;;
60239;SDS011;46102;39.012;-7.064;2023-06-19T09:29:36;4.60;;;3.67;;
60239;SDS011;46102;39.012;-7.064;2023-06-19T09:31:39;4.43;;;3.13;;
60239;SDS011;46102;39.012;-7.064;2023-06-19T09:33:41;5.10;;;3.28;;
60239;SDS011;46102;39.012;-7.064;2023-06-19T09:35:42;4.10;;;3.58;;
60239;SDS011;46102;39.012;-7.064;2023-06-19T09:37:43;3.63;;;3.30;;
60239;SDS011;46102;39.012;-7.064;2023-06-19T09:39:46;3.22;;;3.03;;
60239;SDS011;46102;39.012;-7.064;2023-06-19T09:41:52;6.07;;;3.65;;
60239;SDS011;46102;39.012;-7.064;2023-06-19T09:43:59;4.15;;;3.75;;
60239;SDS011;46102;39.012;-7.064;2023-06-19T09:46:02;5.38;;;4.13;;
60239;SDS011;46102;39.012;-7.064;2023-06-19T09:48:05;3.63;;;3.00;;
60239;SDS011;46102;39.012;-7.064;2023-06-19T09:50:23;5.70;;;3.83;;
60239;SDS011;46102;39.012;-7.064;2023-06-19T09:52:27;4.13;;;3.72;;
60239;SDS011;46102;39.012;-7.064;2023-06-19T09:54:36;4.70;;;3.35;;
60239;SDS011;46102;39.012;-7.064;2023-06-19T09:56:39;3.30;;;3.10;;
60239;SDS011;46102;39.012;-7.064;2023-06-19T09:58:40;8.18;;;3.38;;
60239;SDS011;46102;39.012;-7.064;2023-06-19T10:00:43;3.75;;;3.45;;
60239;SDS011;46102;39.012;-7.064;2023-06-19T10:02:45;4.05;;;3.50;;
60239;SDS011;46102;39.012;-7.064;2023-06-19T10:04:52;3.83;;;3.55;;
60239;SDS011;46102;39.012;-7.064;2023-06-19T10:06:55;5.35;;;3.90;;
60239;SDS011;46102;39.012;-7.064;2023-06-19T10:09:05;4.53;;;4.05;;
60239;SDS011;46102;39.012;-7.064;2023-06-19T10:11:08;3.20;;;3.00;;
60239;SDS011;46102;39.012;-7.064;2023-06-19T10:13:12;4.90;;;4.10;;
60239;SDS011;46102;39.012;-7.064;2023-06-19T10:17:19;3.47;;;3.22;;
60239;SDS011;46102;39.012;-7.064;2023-06-19T10:19:20;3.60;;;3.30;;
60239;SDS011;46102;39.012;-7.064;2023-06-19T10:21:22;3.00;;;2.80;;
60239;SDS011;46102;39.012;-7.064;2023-06-19T10:23:24;4.15;;;2.95;;
60239;SDS011;46102;39.012;-7.064;2023-06-19T10:25:29;3.72;;;3.40;;
60239;SDS011;46102;39.012;-7.064;2023-06-19T10:27:33;3.80;;;3.42;;
60239;SDS011;46102;39.012;-7.064;2023-06-19T10:29:41;4.13;;;3.72;;
60239;SDS011;46102;39.012;-7.064;2023-06-19T10:31:42;4.97;;;3.85;;
60239;SDS011;46102;39.012;-7.064;2023-06-19T10:33:44;6.57;;;4.30;;
60239;SDS011;46102;39.012;-7.064;2023-06-19T10:35:45;4.47;;;4.07;;
60239;SDS011;46102;39.012;-7.064;2023-06-19T10:37:45;6.88;;;3.92;;
60239;SDS011;46102;39.012;-7.064;2023-06-19T10:39:46;6.22;;;4.20;;
60239;SDS011;46102;39.012;-7.064;2023-06-19T10:41:47;5.50;;;4.00;;
60239;SDS011;46102;39.012;-7.064;2023-06-19T10:44:04;4.75;;;4.25;;
60239;SDS011;46102;39.012;-7.064;2023-06-19T10:46:09;5.28;;;4.07;;
60239;SDS011;46102;39.012;-7.064;2023-06-19T10:48:09;4.28;;;3.97;;
60239;SDS011;46102;39.012;-7.064;2023-06-19T10:50:11;8.98;;;4.13;;
60239;SDS011;46102;39.012;-7.064;2023-06-19T10:52:13;4.50;;;4.10;;
60239;SDS011;46102;39.012;-7.064;2023-06-19T10:54:15;3.70;;;3.40;;
60239;SDS011;46102;39.012;-7.064;2023-06-19T10:56:16;5.90;;;4.47;;
60239;SDS011;46102;39.012;-7.064;2023-06-19T10:58:20;4.47;;;4.03;;
60239;SDS011;46102;39.012;-7.064;2023-06-19T11:00:22;4.85;;;4.03;;
60239;SDS011;46102;39.012;-7.064;2023-06-19T11:02:25;4.47;;;4.07;;
60239;SDS011;46102;39.012;-7.064;2023-06-19T11:04:26;5.55;;;4.75;;
60239;SDS011;46102;39.012;-7.064;2023-06-19T11:06:27;5.85;;;4.22;;
60239;SDS011;46102;39.012;-7.064;2023-06-19T11:08:28;4.90;;;4.57;;
60239;SDS011;46102;39.012;-7.064;2023-06-19T11:10:29;4.60;;;4.15;;
60239;SDS011;46102;39.012;-7.064;2023-06-19T11:12:31;5.25;;;4.75;;
60239;SDS011;46102;39.012;-7.064;2023-06-19T11:14:33;4.60;;;4.20;;
60239;SDS011;46102;39.012;-7.064;2023-06-19T11:16:41;4.53;;;4.22;;
60239;SDS011;46102;39.012;-7.064;2023-06-19T11:18:42;4.13;;;3.83;;
60239;SDS011;46102;39.012;-7.064;2023-06-19T11:20:47;10.85;;;4.38;;
60239;SDS011;46102;39.012;-7.064;2023-06-19T11:22:53;5.72;;;4.30;;
60239;SDS011;46102;39.012;-7.064;2023-06-19T11:25:01;5.10;;;4.57;;
60239;SDS011;46102;39.012;-7.064;2023-06-19T11:27:03;4.70;;;4.25;;
60239;SDS011;46102;39.012;-7.064;2023-06-19T11:29:13;4.97;;;4.00;;
60239;SDS011;46102;39.012;-7.064;2023-06-19T11:31:15;7.15;;;4.15;;
60239;SDS011;46102;39.012;-7.064;2023-06-19T11:33:19;6.95;;;4.20;;
60239;SDS011;46102;39.012;-7.064;2023-06-19T11:35:23;4.75;;;4.35;;
60239;SDS011;46102;39.012;-7.064;2023-06-19T11:37:24;5.85;;;4.18;;
60239;SDS011;46102;39.012;-7.064;2023-06-19T11:39:25;4.80;;;4.40;;
60239;SDS011;46102;39.012;-7.064;2023-06-19T11:41:26;5.18;;;4.18;;
60239;SDS011;46102;39.012;-7.064;2023-06-19T11:43:31;4.60;;;4.20;;
60239;SDS011;46102;39.012;-7.064;2023-06-19T11:45:32;4.85;;;4.38;;
60239;SDS011;46102;39.012;-7.064;2023-06-19T11:47:33;4.75;;;4.35;;
60239;SDS011;46102;39.012;-7.064;2023-06-19T11:49:35;5.82;;;4.32;;
60239;SDS011;46102;39.012;-7.064;2023-06-19T11:51:36;5.97;;;4.40;;
60239;SDS011;46102;39.012;-7.064;2023-06-19T11:53:37;4.68;;;4.28;;
60239;SDS011;46102;39.012;-7.064;2023-06-19T11:55:38;4.95;;;4.07;;
60239;SDS011;46102;39.012;-7.064;2023-06-19T11:57:38;5.95;;;4.45;;
60239;SDS011;46102;39.012;-7.064;2023-06-19T11:59:40;4.82;;;4.43;;
60239;SDS011;46102;39.012;-7.064;2023-06-19T12:01:41;5.25;;;4.70;;
60239;SDS011;46102;39.012;-7.064;2023-06-19T12:03:42;6.30;;;4.60;;
60239;SDS011;46102;39.012;-7.064;2023-06-19T12:05:43;5.85;;;4.13;;
60239;SDS011;46102;39.012;-7.064;2023-06-19T12:07:44;5.05;;;4.55;;
60239;SDS011;46102;39.012;-7.064;2023-06-19T12:09:45;6.00;;;4.70;;
60239;SDS011;46102;39.012;-7.064;2023-06-19T12:11:46;5.47;;;4.85;;